sensor_id;sensor_type;location;lat;lon;timestamp;P1;durP1;ratioP1;P2;durP2;ratioP2
38425;SDS011;24210;51.460;6.148;2022-08-11T00:02:31;2.20;;;1.65;;
38425;SDS011;24210;51.460;6.148;2022-08-11T00:04:56;4.47;;;2.60;;
38425;SDS011;24210;51.460;6.148;2022-08-11T00:07:25;2.80;;;2.05;;
38425;SDS011;24210;51.460;6.148;2022-08-11T00:09:51;4.07;;;2.30;;
38425;SDS011;24210;51.460;6.148;2022-08-11T00:12:17;2.00;;;1.77;;
38425;SDS011;24210;51.460;6.148;2022-08-11T00:14:42;5.13;;;1.93;;
38425;SDS011;24210;51.460;6.148;2022-08-11T00:17:09;4.57;;;1.77;;
38425;SDS011;24210;51.460;6.148;2022-08-11T00:19:36;3.60;;;1.75;;
38425;SDS011;24210;51.460;6.148;2022-08-11T00:22:02;4.47;;;1.73;;
38425;SDS011;24210;51.460;6.148;2022-08-11T00:24:31;6.97;;;2.17;;
38425;SDS011;24210;51.460;6.148;2022-08-11T00:26:57;3.63;;;1.90;;
38425;SDS011;24210;51.460;6.148;2022-08-11T00:29:22;3.20;;;2.07;;
38425;SDS011;24210;51.460;6.148;2022-08-11T00:31:48;1.57;;;1.47;;
38425;SDS011;24210;51.460;6.148;2022-08-11T00:34:14;2.83;;;2.10;;
38425;SDS011;24210;51.460;6.148;2022-08-11T00:39:07;4.33;;;2.23;;
38425;SDS011;24210;51.460;6.148;2022-08-11T00:41:35;4.70;;;2.50;;
38425;SDS011;24210;51.460;6.148;2022-08-11T00:44:06;4.07;;;2.08;;
38425;SDS011;24210;51.460;6.148;2022-08-11T00:49:31;4.00;;;2.25;;
38425;SDS011;24210;51.460;6.148;2022-08-11T00:57:10;2.08;;;1.85;;
38425;SDS011;24210;51.460;6.148;2022-08-11T00:59:56;5.15;;;2.20;;
38425;SDS011;24210;51.460;6.148;2022-08-11T01:05:13;5.65;;;2.08;;
38425;SDS011;24210;51.460;6.148;2022-08-11T01:07:47;6.18;;;2.20;;
38425;SDS011;24210;51.460;6.148;2022-08-11T01:13:00;3.47;;;1.90;;
38425;SDS011;24210;51.460;6.148;2022-08-11T01:20:57;8.02;;;3.03;;
38425;SDS011;24210;51.460;6.148;2022-08-11T01:28:56;4.50;;;2.42;;
38425;SDS011;24210;51.460;6.148;2022-08-11T01:36:59;3.42;;;2.67;;
38425;SDS011;24210;51.460;6.148;2022-08-11T01:47:43;5.40;;;2.70;;
38425;SDS011;24210;51.460;6.148;2022-08-11T02:00:27;5.20;;;2.38;;
38425;SDS011;24210;51.460;6.148;2022-08-11T02:03:00;4.13;;;2.20;;
38425;SDS011;24210;51.460;6.148;2022-08-11T02:08:25;4.90;;;2.22;;
38425;SDS011;24210;51.460;6.148;2022-08-11T02:18:52;6.03;;;2.30;;
38425;SDS011;24210;51.460;6.148;2022-08-11T02:21:43;4.10;;;2.50;;
38425;SDS011;24210;51.460;6.148;2022-08-11T02:24:33;3.88;;;2.38;;
38425;SDS011;24210;51.460;6.148;2022-08-11T02:27:01;4.00;;;2.00;;
38425;SDS011;24210;51.460;6.148;2022-08-11T02:29:31;3.08;;;2.78;;
38425;SDS011;24210;51.460;6.148;2022-08-11T02:34:48;2.47;;;2.20;;
38425;SDS011;24210;51.460;6.148;2022-08-11T02:44:56;3.38;;;2.75;;
38425;SDS011;24210;51.460;6.148;2022-08-11T02:49:57;4.50;;;2.27;;
38425;SDS011;24210;51.460;6.148;2022-08-11T02:54:56;2.40;;;2.20;;
38425;SDS011;24210;51.460;6.148;2022-08-11T03:00:13;2.63;;;2.05;;
38425;SDS011;24210;51.460;6.148;2022-08-11T03:05:25;5.07;;;2.20;;
38425;SDS011;24210;51.460;6.148;2022-08-11T03:13:33;5.32;;;2.80;;
38425;SDS011;24210;51.460;6.148;2022-08-11T03:16:23;4.22;;;2.55;;
38425;SDS011;24210;51.460;6.148;2022-08-11T03:21:41;5.77;;;2.43;;
38425;SDS011;24210;51.460;6.148;2022-08-11T03:24:13;7.03;;;2.75;;
38425;SDS011;24210;51.460;6.148;2022-08-11T03:29:34;2.50;;;2.20;;
38425;SDS011;24210;51.460;6.148;2022-08-11T03:32:06;5.65;;;2.80;;
38425;SDS011;24210;51.460;6.148;2022-08-11T03:34:34;4.13;;;2.60;;
38425;SDS011;24210;51.460;6.148;2022-08-11T03:45:09;3.22;;;2.65;;
38425;SDS011;24210;51.460;6.148;2022-08-11T03:47:43;4.60;;;1.98;;
38425;SDS011;24210;51.460;6.148;2022-08-11T03:50:15;3.17;;;2.40;;
38425;SDS011;24210;51.460;6.148;2022-08-11T03:58:52;3.03;;;2.70;;
38425;SDS011;24210;51.460;6.148;2022-08-11T04:05:48;4.77;;;2.47;;
38425;SDS011;24210;51.460;6.148;2022-08-11T04:22:16;2.60;;;2.03;;
38425;SDS011;24210;51.460;6.148;2022-08-11T04:38:07;2.95;;;2.33;;
38425;SDS011;24210;51.460;6.148;2022-08-11T04:54:22;4.07;;;2.47;;
38425;SDS011;24210;51.460;6.148;2022-08-11T05:00:15;3.90;;;2.58;;
38425;SDS011;24210;51.460;6.148;2022-08-11T05:16:41;4.50;;;2.83;;
38425;SDS011;24210;51.460;6.148;2022-08-11T05:19:30;8.20;;;2.70;;
38425;SDS011;24210;51.460;6.148;2022-08-11T05:22:14;5.78;;;3.22;;
38425;SDS011;24210;51.460;6.148;2022-08-11T05:25:11;5.03;;;3.10;;
38425;SDS011;24210;51.460;6.148;2022-08-11T05:30:42;3.10;;;2.35;;
38425;SDS011;24210;51.460;6.148;2022-08-11T05:33:32;4.63;;;2.90;;
38425;SDS011;24210;51.460;6.148;2022-08-11T05:36:17;3.47;;;2.85;;
38425;SDS011;24210;51.460;6.148;2022-08-11T05:39:00;5.63;;;2.58;;
38425;SDS011;24210;51.460;6.148;2022-08-11T05:44:28;4.97;;;2.90;;
38425;SDS011;24210;51.460;6.148;2022-08-11T05:49:50;4.82;;;2.17;;
38425;SDS011;24210;51.460;6.148;2022-08-11T05:52:35;4.88;;;2.55;;
38425;SDS011;24210;51.460;6.148;2022-08-11T05:55:19;6.95;;;2.80;;
38425;SDS011;24210;51.460;6.148;2022-08-11T05:58:05;8.95;;;3.67;;
38425;SDS011;24210;51.460;6.148;2022-08-11T06:00:31;5.90;;;2.25;;
38425;SDS011;24210;51.460;6.148;2022-08-11T06:03:04;7.30;;;2.72;;
38425;SDS011;24210;51.460;6.148;2022-08-11T06:07:56;6.30;;;2.83;;
38425;SDS011;24210;51.460;6.148;2022-08-11T06:10:28;6.27;;;2.23;;
38425;SDS011;24210;51.460;6.148;2022-08-11T06:12:54;6.38;;;3.63;;
38425;SDS011;24210;51.460;6.148;2022-08-11T06:15:21;5.53;;;2.65;;
38425;SDS011;24210;51.460;6.148;2022-08-11T06:17:47;4.93;;;3.00;;
38425;SDS011;24210;51.460;6.148;2022-08-11T06:20:15;5.65;;;2.70;;
38425;SDS011;24210;51.460;6.148;2022-08-11T06:22:43;4.22;;;2.38;;
38425;SDS011;24210;51.460;6.148;2022-08-11T06:25:09;12.70;;;4.38;;
38425;SDS011;24210;51.460;6.148;2022-08-11T06:27:36;4.63;;;3.22;;
38425;SDS011;24210;51.460;6.148;2022-08-11T06:30:03;9.93;;;2.92;;
38425;SDS011;24210;51.460;6.148;2022-08-11T06:32:37;8.93;;;3.38;;
38425;SDS011;24210;51.460;6.148;2022-08-11T06:38:01;6.47;;;2.75;;
38425;SDS011;24210;51.460;6.148;2022-08-11T06:42:56;5.53;;;3.50;;
38425;SDS011;24210;51.460;6.148;2022-08-11T06:47:51;6.97;;;3.83;;
38425;SDS011;24210;51.460;6.148;2022-08-11T06:50:17;9.10;;;4.03;;
38425;SDS011;24210;51.460;6.148;2022-08-11T06:53:02;8.13;;;3.10;;
38425;SDS011;24210;51.460;6.148;2022-08-11T06:55:29;6.15;;;3.08;;
38425;SDS011;24210;51.460;6.148;2022-08-11T06:58:18;7.20;;;4.25;;
38425;SDS011;24210;51.460;6.148;2022-08-11T07:01:05;7.05;;;3.80;;
38425;SDS011;24210;51.460;6.148;2022-08-11T07:03:32;5.22;;;4.03;;
38425;SDS011;24210;51.460;6.148;2022-08-11T07:06:03;11.68;;;3.78;;
38425;SDS011;24210;51.460;6.148;2022-08-11T07:14:35;9.48;;;4.05;;
38425;SDS011;24210;51.460;6.148;2022-08-11T07:17:21;8.15;;;4.28;;
38425;SDS011;24210;51.460;6.148;2022-08-11T07:19:49;8.70;;;4.20;;
38425;SDS011;24210;51.460;6.148;2022-08-11T07:22:33;7.07;;;3.28;;
38425;SDS011;24210;51.460;6.148;2022-08-11T07:25:18;9.55;;;4.25;;
38425;SDS011;24210;51.460;6.148;2022-08-11T07:30:47;18.60;;;4.45;;
38425;SDS011;24210;51.460;6.148;2022-08-11T07:33:16;11.98;;;4.25;;
38425;SDS011;24210;51.460;6.148;2022-08-11T07:35:50;7.13;;;3.63;;
38425;SDS011;24210;51.460;6.148;2022-08-11T07:38:59;9.65;;;4.53;;
38425;SDS011;24210;51.460;6.148;2022-08-11T07:41:09;7.65;;;3.53;;
38425;SDS011;24210;51.460;6.148;2022-08-11T07:43:35;6.35;;;4.25;;
38425;SDS011;24210;51.460;6.148;2022-08-11T07:46:00;7.63;;;4.20;;
38425;SDS011;24210;51.460;6.148;2022-08-11T07:48:46;9.35;;;4.53;;
38425;SDS011;24210;51.460;6.148;2022-08-11T07:51:30;10.65;;;4.00;;
38425;SDS011;24210;51.460;6.148;2022-08-11T07:54:13;8.07;;;3.75;;
38425;SDS011;24210;51.460;6.148;2022-08-11T07:56:39;10.05;;;4.05;;
38425;SDS011;24210;51.460;6.148;2022-08-11T07:59:05;9.57;;;3.83;;
38425;SDS011;24210;51.460;6.148;2022-08-11T08:01:49;6.95;;;4.13;;
38425;SDS011;24210;51.460;6.148;2022-08-11T08:04:32;11.73;;;3.63;;
38425;SDS011;24210;51.460;6.148;2022-08-11T08:07:18;8.55;;;3.78;;
38425;SDS011;24210;51.460;6.148;2022-08-11T08:10:02;8.20;;;3.30;;
38425;SDS011;24210;51.460;6.148;2022-08-11T08:12:48;11.63;;;3.55;;
38425;SDS011;24210;51.460;6.148;2022-08-11T08:15:32;8.93;;;4.07;;
38425;SDS011;24210;51.460;6.148;2022-08-11T08:18:16;7.43;;;3.45;;
38425;SDS011;24210;51.460;6.148;2022-08-11T08:20:46;10.75;;;4.38;;
38425;SDS011;24210;51.460;6.148;2022-08-11T08:23:11;6.75;;;4.60;;
38425;SDS011;24210;51.460;6.148;2022-08-11T08:25:38;5.97;;;3.90;;
38425;SDS011;24210;51.460;6.148;2022-08-11T08:28:05;7.75;;;3.75;;
38425;SDS011;24210;51.460;6.148;2022-08-11T08:30:30;11.02;;;4.05;;
38425;SDS011;24210;51.460;6.148;2022-08-11T08:33:35;8.85;;;3.50;;
38425;SDS011;24210;51.460;6.148;2022-08-11T08:36:01;5.22;;;3.60;;
38425;SDS011;24210;51.460;6.148;2022-08-11T08:38:54;5.65;;;3.03;;
38425;SDS011;24210;51.460;6.148;2022-08-11T08:41:29;6.72;;;4.03;;
38425;SDS011;24210;51.460;6.148;2022-08-11T08:43:57;8.60;;;3.33;;
38425;SDS011;24210;51.460;6.148;2022-08-11T08:48:47;7.45;;;3.35;;
38425;SDS011;24210;51.460;6.148;2022-08-11T08:51:13;6.33;;;3.40;;
38425;SDS011;24210;51.460;6.148;2022-08-11T08:53:59;7.32;;;3.60;;
38425;SDS011;24210;51.460;6.148;2022-08-11T08:56:27;3.53;;;3.22;;
38425;SDS011;24210;51.460;6.148;2022-08-11T08:58:53;8.38;;;3.75;;
38425;SDS011;24210;51.460;6.148;2022-08-11T09:01:19;12.77;;;3.72;;
38425;SDS011;24210;51.460;6.148;2022-08-11T09:03:46;6.88;;;3.45;;
38425;SDS011;24210;51.460;6.148;2022-08-11T09:06:12;4.53;;;4.03;;
38425;SDS011;24210;51.460;6.148;2022-08-11T09:08:40;8.48;;;2.92;;
38425;SDS011;24210;51.460;6.148;2022-08-11T09:11:06;6.57;;;2.83;;
38425;SDS011;24210;51.460;6.148;2022-08-11T09:13:50;8.65;;;3.83;;
38425;SDS011;24210;51.460;6.148;2022-08-11T09:16:16;3.43;;;3.03;;
38425;SDS011;24210;51.460;6.148;2022-08-11T09:18:41;9.02;;;3.13;;
38425;SDS011;24210;51.460;6.148;2022-08-11T09:21:13;9.43;;;3.42;;
38425;SDS011;24210;51.460;6.148;2022-08-11T09:23:39;3.65;;;2.45;;
38425;SDS011;24210;51.460;6.148;2022-08-11T09:26:23;6.28;;;2.70;;
38425;SDS011;24210;51.460;6.148;2022-08-11T09:29:08;6.30;;;3.35;;
38425;SDS011;24210;51.460;6.148;2022-08-11T09:31:34;5.40;;;2.70;;
38425;SDS011;24210;51.460;6.148;2022-08-11T09:33:59;5.80;;;2.60;;
38425;SDS011;24210;51.460;6.148;2022-08-11T09:36:25;5.73;;;3.10;;
38425;SDS011;24210;51.460;6.148;2022-08-11T09:39:09;8.02;;;3.05;;
38425;SDS011;24210;51.460;6.148;2022-08-11T09:42:11;5.93;;;2.95;;
38425;SDS011;24210;51.460;6.148;2022-08-11T09:44:37;6.53;;;3.43;;
38425;SDS011;24210;51.460;6.148;2022-08-11T09:47:14;6.70;;;2.63;;
38425;SDS011;24210;51.460;6.148;2022-08-11T09:49:43;7.63;;;3.20;;
38425;SDS011;24210;51.460;6.148;2022-08-11T09:52:09;4.53;;;3.58;;
38425;SDS011;24210;51.460;6.148;2022-08-11T09:54:34;8.23;;;2.70;;
38425;SDS011;24210;51.460;6.148;2022-08-11T09:56:59;11.40;;;3.80;;
38425;SDS011;24210;51.460;6.148;2022-08-11T09:59:43;8.13;;;2.97;;
38425;SDS011;24210;51.460;6.148;2022-08-11T10:02:09;10.73;;;3.20;;
38425;SDS011;24210;51.460;6.148;2022-08-11T10:04:41;12.20;;;3.43;;
38425;SDS011;24210;51.460;6.148;2022-08-11T10:07:07;10.68;;;3.40;;
38425;SDS011;24210;51.460;6.148;2022-08-11T10:11:59;10.40;;;2.90;;
38425;SDS011;24210;51.460;6.148;2022-08-11T10:14:27;5.30;;;2.50;;
38425;SDS011;24210;51.460;6.148;2022-08-11T10:17:12;4.68;;;2.47;;
38425;SDS011;24210;51.460;6.148;2022-08-11T10:19:38;5.57;;;2.83;;
38425;SDS011;24210;51.460;6.148;2022-08-11T10:22:05;4.60;;;2.42;;
38425;SDS011;24210;51.460;6.148;2022-08-11T10:24:48;6.30;;;2.40;;
38425;SDS011;24210;51.460;6.148;2022-08-11T10:27:34;6.43;;;2.28;;
38425;SDS011;24210;51.460;6.148;2022-08-11T10:29:59;5.27;;;2.23;;
38425;SDS011;24210;51.460;6.148;2022-08-11T10:32:43;5.32;;;3.28;;
38425;SDS011;24210;51.460;6.148;2022-08-11T10:35:28;9.18;;;3.00;;
38425;SDS011;24210;51.460;6.148;2022-08-11T10:37:54;4.20;;;2.55;;
38425;SDS011;24210;51.460;6.148;2022-08-11T10:40:20;3.97;;;2.30;;
38425;SDS011;24210;51.460;6.148;2022-08-11T10:42:50;4.25;;;2.60;;
38425;SDS011;24210;51.460;6.148;2022-08-11T10:45:34;5.00;;;2.60;;
38425;SDS011;24210;51.460;6.148;2022-08-11T10:48:20;3.67;;;2.10;;
38425;SDS011;24210;51.460;6.148;2022-08-11T10:50:46;2.63;;;2.25;;
38425;SDS011;24210;51.460;6.148;2022-08-11T10:53:30;3.22;;;2.35;;
38425;SDS011;24210;51.460;6.148;2022-08-11T10:56:14;6.93;;;3.08;;
38425;SDS011;24210;51.460;6.148;2022-08-11T10:58:59;4.27;;;2.30;;
38425;SDS011;24210;51.460;6.148;2022-08-11T11:01:25;5.43;;;2.50;;
38425;SDS011;24210;51.460;6.148;2022-08-11T11:03:53;7.82;;;2.72;;
38425;SDS011;24210;51.460;6.148;2022-08-11T11:08:50;5.28;;;3.47;;
38425;SDS011;24210;51.460;6.148;2022-08-11T11:11:23;5.53;;;2.40;;
38425;SDS011;24210;51.460;6.148;2022-08-11T11:14:08;8.00;;;2.40;;
38425;SDS011;24210;51.460;6.148;2022-08-11T11:16:52;4.45;;;1.77;;
38425;SDS011;24210;51.460;6.148;2022-08-11T11:19:37;2.47;;;1.70;;
38425;SDS011;24210;51.460;6.148;2022-08-11T11:22:03;6.03;;;2.15;;
38425;SDS011;24210;51.460;6.148;2022-08-11T11:32:31;3.22;;;1.90;;
38425;SDS011;24210;51.460;6.148;2022-08-11T11:37:31;3.42;;;2.05;;
38425;SDS011;24210;51.460;6.148;2022-08-11T11:39:59;4.78;;;1.98;;
38425;SDS011;24210;51.460;6.148;2022-08-11T11:42:25;3.85;;;1.98;;
38425;SDS011;24210;51.460;6.148;2022-08-11T11:44:50;4.43;;;2.27;;
38425;SDS011;24210;51.460;6.148;2022-08-11T11:47:15;2.27;;;2.07;;
38425;SDS011;24210;51.460;6.148;2022-08-11T11:49:43;2.33;;;1.90;;
38425;SDS011;24210;51.460;6.148;2022-08-11T11:52:12;1.95;;;1.85;;
38425;SDS011;24210;51.460;6.148;2022-08-11T11:54:38;4.25;;;1.75;;
38425;SDS011;24210;51.460;6.148;2022-08-11T11:57:04;2.65;;;2.20;;
38425;SDS011;24210;51.460;6.148;2022-08-11T11:59:48;4.75;;;2.33;;
38425;SDS011;24210;51.460;6.148;2022-08-11T12:02:43;4.35;;;2.20;;
38425;SDS011;24210;51.460;6.148;2022-08-11T12:05:09;2.87;;;1.83;;
38425;SDS011;24210;51.460;6.148;2022-08-11T12:07:34;4.40;;;2.50;;
38425;SDS011;24210;51.460;6.148;2022-08-11T12:10:18;2.58;;;2.17;;
38425;SDS011;24210;51.460;6.148;2022-08-11T12:12:44;6.23;;;2.40;;
38425;SDS011;24210;51.460;6.148;2022-08-11T12:15:28;5.10;;;2.50;;
38425;SDS011;24210;51.460;6.148;2022-08-11T12:17:55;3.58;;;2.72;;
38425;SDS011;24210;51.460;6.148;2022-08-11T12:20:20;4.65;;;2.28;;
38425;SDS011;24210;51.460;6.148;2022-08-11T12:22:46;7.50;;;3.43;;
38425;SDS011;24210;51.460;6.148;2022-08-11T12:25:31;3.70;;;2.72;;
38425;SDS011;24210;51.460;6.148;2022-08-11T12:28:15;9.02;;;2.28;;
38425;SDS011;24210;51.460;6.148;2022-08-11T12:30:40;3.53;;;2.53;;
38425;SDS011;24210;51.460;6.148;2022-08-11T12:33:07;4.78;;;2.40;;
38425;SDS011;24210;51.460;6.148;2022-08-11T12:35:32;6.90;;;2.40;;
38425;SDS011;24210;51.460;6.148;2022-08-11T12:40:27;5.93;;;2.65;;
38425;SDS011;24210;51.460;6.148;2022-08-11T12:43:20;3.30;;;2.08;;
38425;SDS011;24210;51.460;6.148;2022-08-11T12:46:47;4.60;;;2.42;;
38425;SDS011;24210;51.460;6.148;2022-08-11T12:48:57;3.05;;;2.50;;
38425;SDS011;24210;51.460;6.148;2022-08-11T12:51:44;4.43;;;3.00;;
38425;SDS011;24210;51.460;6.148;2022-08-11T12:54:43;4.15;;;2.85;;
38425;SDS011;24210;51.460;6.148;2022-08-11T12:57:14;5.72;;;2.38;;
38425;SDS011;24210;51.460;6.148;2022-08-11T13:00:02;3.40;;;2.65;;
38425;SDS011;24210;51.460;6.148;2022-08-11T13:02:46;4.10;;;2.17;;
38425;SDS011;24210;51.460;6.148;2022-08-11T13:05:31;4.82;;;3.00;;
38425;SDS011;24210;51.460;6.148;2022-08-11T13:07:57;4.97;;;2.30;;
38425;SDS011;24210;51.460;6.148;2022-08-11T13:10:23;6.30;;;3.40;;
38425;SDS011;24210;51.460;6.148;2022-08-11T13:13:07;4.60;;;2.90;;
38425;SDS011;24210;51.460;6.148;2022-08-11T13:15:32;8.10;;;2.90;;
38425;SDS011;24210;51.460;6.148;2022-08-11T13:18:00;7.50;;;3.50;;
38425;SDS011;24210;51.460;6.148;2022-08-11T13:20:26;2.90;;;2.67;;
38425;SDS011;24210;51.460;6.148;2022-08-11T13:22:52;4.65;;;3.03;;
38425;SDS011;24210;51.460;6.148;2022-08-11T13:25:19;2.65;;;2.17;;
38425;SDS011;24210;51.460;6.148;2022-08-11T13:27:46;4.05;;;2.10;;
38425;SDS011;24210;51.460;6.148;2022-08-11T13:30:15;2.83;;;2.47;;
38425;SDS011;24210;51.460;6.148;2022-08-11T13:32:59;6.68;;;2.28;;
38425;SDS011;24210;51.460;6.148;2022-08-11T13:35:25;8.90;;;3.17;;
38425;SDS011;24210;51.460;6.148;2022-08-11T13:37:52;2.47;;;2.28;;
38425;SDS011;24210;51.460;6.148;2022-08-11T13:42:43;3.80;;;2.13;;
38425;SDS011;24210;51.460;6.148;2022-08-11T13:45:09;5.37;;;2.80;;
38425;SDS011;24210;51.460;6.148;2022-08-11T13:47:35;5.68;;;2.70;;
38425;SDS011;24210;51.460;6.148;2022-08-11T13:50:01;8.18;;;2.70;;
38425;SDS011;24210;51.460;6.148;2022-08-11T13:52:26;8.27;;;3.63;;
38425;SDS011;24210;51.460;6.148;2022-08-11T13:54:52;3.60;;;1.93;;
38425;SDS011;24210;51.460;6.148;2022-08-11T13:57:17;2.78;;;2.40;;
38425;SDS011;24210;51.460;6.148;2022-08-11T13:59:44;7.13;;;3.03;;
38425;SDS011;24210;51.460;6.148;2022-08-11T14:02:16;4.35;;;2.65;;
38425;SDS011;24210;51.460;6.148;2022-08-11T14:04:44;4.25;;;2.63;;
38425;SDS011;24210;51.460;6.148;2022-08-11T14:07:10;5.55;;;2.58;;
38425;SDS011;24210;51.460;6.148;2022-08-11T14:09:36;7.50;;;2.88;;
38425;SDS011;24210;51.460;6.148;2022-08-11T14:12:06;5.35;;;2.38;;
38425;SDS011;24210;51.460;6.148;2022-08-11T14:14:54;6.13;;;2.50;;
38425;SDS011;24210;51.460;6.148;2022-08-11T14:17:21;4.82;;;2.80;;
38425;SDS011;24210;51.460;6.148;2022-08-11T14:19:49;3.70;;;2.33;;
38425;SDS011;24210;51.460;6.148;2022-08-11T14:22:14;5.82;;;2.25;;
38425;SDS011;24210;51.460;6.148;2022-08-11T14:24:41;4.05;;;2.47;;
38425;SDS011;24210;51.460;6.148;2022-08-11T14:27:08;4.03;;;2.40;;
38425;SDS011;24210;51.460;6.148;2022-08-11T14:32:03;2.08;;;1.75;;
38425;SDS011;24210;51.460;6.148;2022-08-11T14:34:29;2.00;;;1.90;;
38425;SDS011;24210;51.460;6.148;2022-08-11T14:36:59;6.97;;;2.35;;
38425;SDS011;24210;51.460;6.148;2022-08-11T14:39:30;5.25;;;1.75;;
38425;SDS011;24210;51.460;6.148;2022-08-11T14:42:01;2.38;;;2.03;;
38425;SDS011;24210;51.460;6.148;2022-08-11T14:44:52;6.18;;;2.45;;
38425;SDS011;24210;51.460;6.148;2022-08-11T14:47:31;3.30;;;2.42;;
38425;SDS011;24210;51.460;6.148;2022-08-11T14:49:57;4.50;;;2.05;;
38425;SDS011;24210;51.460;6.148;2022-08-11T14:52:23;1.95;;;1.85;;
38425;SDS011;24210;51.460;6.148;2022-08-11T14:54:50;6.50;;;2.17;;
38425;SDS011;24210;51.460;6.148;2022-08-11T15:00:00;2.60;;;2.00;;
38425;SDS011;24210;51.460;6.148;2022-08-11T15:02:27;3.10;;;1.58;;
38425;SDS011;24210;51.460;6.148;2022-08-11T15:05:12;4.00;;;2.08;;
38425;SDS011;24210;51.460;6.148;2022-08-11T15:07:38;1.50;;;1.40;;
38425;SDS011;24210;51.460;6.148;2022-08-11T15:10:05;3.00;;;1.95;;
38425;SDS011;24210;51.460;6.148;2022-08-11T15:12:31;2.10;;;1.67;;
38425;SDS011;24210;51.460;6.148;2022-08-11T15:14:57;3.15;;;2.22;;
38425;SDS011;24210;51.460;6.148;2022-08-11T15:17:41;2.47;;;1.92;;
38425;SDS011;24210;51.460;6.148;2022-08-11T15:20:12;2.63;;;1.80;;
38425;SDS011;24210;51.460;6.148;2022-08-11T15:22:56;1.50;;;1.40;;
38425;SDS011;24210;51.460;6.148;2022-08-11T15:25:42;4.28;;;1.83;;
38425;SDS011;24210;51.460;6.148;2022-08-11T15:28:09;7.65;;;1.88;;
38425;SDS011;24210;51.460;6.148;2022-08-11T15:30:54;3.47;;;2.00;;
38425;SDS011;24210;51.460;6.148;2022-08-11T15:36:23;4.82;;;1.77;;
38425;SDS011;24210;51.460;6.148;2022-08-11T15:42:29;4.32;;;1.95;;
38425;SDS011;24210;51.460;6.148;2022-08-11T15:45:14;3.80;;;1.95;;
38425;SDS011;24210;51.460;6.148;2022-08-11T15:48:02;3.35;;;1.77;;
38425;SDS011;24210;51.460;6.148;2022-08-11T15:50:30;4.05;;;1.42;;
38425;SDS011;24210;51.460;6.148;2022-08-11T15:53:04;3.80;;;1.90;;
38425;SDS011;24210;51.460;6.148;2022-08-11T15:55:31;11.50;;;3.13;;
38425;SDS011;24210;51.460;6.148;2022-08-11T15:58:00;5.55;;;2.30;;
38425;SDS011;24210;51.460;6.148;2022-08-11T16:00:45;2.33;;;1.90;;
38425;SDS011;24210;51.460;6.148;2022-08-11T16:03:30;3.25;;;2.30;;
38425;SDS011;24210;51.460;6.148;2022-08-11T16:06:15;10.93;;;2.47;;
38425;SDS011;24210;51.460;6.148;2022-08-11T16:08:40;2.58;;;2.30;;
38425;SDS011;24210;51.460;6.148;2022-08-11T16:11:07;4.32;;;2.55;;
38425;SDS011;24210;51.460;6.148;2022-08-11T16:13:32;1.80;;;1.70;;
38425;SDS011;24210;51.460;6.148;2022-08-11T16:15:59;2.33;;;1.90;;
38425;SDS011;24210;51.460;6.148;2022-08-11T16:18:48;2.42;;;2.20;;
38425;SDS011;24210;51.460;6.148;2022-08-11T16:21:16;4.85;;;2.28;;
38425;SDS011;24210;51.460;6.148;2022-08-11T16:23:43;5.65;;;2.17;;
38425;SDS011;24210;51.460;6.148;2022-08-11T16:26:10;2.67;;;1.60;;
38425;SDS011;24210;51.460;6.148;2022-08-11T16:28:36;2.42;;;2.15;;
38425;SDS011;24210;51.460;6.148;2022-08-11T16:31:02;8.88;;;2.55;;
38425;SDS011;24210;51.460;6.148;2022-08-11T16:33:35;3.80;;;2.30;;
38425;SDS011;24210;51.460;6.148;2022-08-11T16:36:00;4.55;;;2.00;;
38425;SDS011;24210;51.460;6.148;2022-08-11T16:38:45;5.30;;;2.43;;
38425;SDS011;24210;51.460;6.148;2022-08-11T16:41:14;7.60;;;2.25;;
38425;SDS011;24210;51.460;6.148;2022-08-11T16:43:41;3.15;;;2.13;;
38425;SDS011;24210;51.460;6.148;2022-08-11T16:46:43;3.05;;;2.13;;
38425;SDS011;24210;51.460;6.148;2022-08-11T16:49:40;2.58;;;1.83;;
38425;SDS011;24210;51.460;6.148;2022-08-11T16:52:07;5.15;;;2.00;;
38425;SDS011;24210;51.460;6.148;2022-08-11T16:54:36;4.95;;;2.15;;
38425;SDS011;24210;51.460;6.148;2022-08-11T16:57:02;3.47;;;2.28;;
38425;SDS011;24210;51.460;6.148;2022-08-11T16:59:48;8.25;;;2.38;;
38425;SDS011;24210;51.460;6.148;2022-08-11T17:02:17;4.82;;;1.88;;
38425;SDS011;24210;51.460;6.148;2022-08-11T17:05:02;10.88;;;2.88;;
38425;SDS011;24210;51.460;6.148;2022-08-11T17:07:49;2.75;;;2.20;;
38425;SDS011;24210;51.460;6.148;2022-08-11T17:10:50;2.20;;;1.90;;
38425;SDS011;24210;51.460;6.148;2022-08-11T17:16:20;6.45;;;1.83;;
38425;SDS011;24210;51.460;6.148;2022-08-11T17:18:49;5.18;;;2.00;;
38425;SDS011;24210;51.460;6.148;2022-08-11T17:23:42;1.97;;;1.87;;
38425;SDS011;24210;51.460;6.148;2022-08-11T17:26:21;6.22;;;2.25;;
38425;SDS011;24210;51.460;6.148;2022-08-11T17:28:47;3.67;;;1.83;;
38425;SDS011;24210;51.460;6.148;2022-08-11T17:31:15;2.38;;;2.22;;
38425;SDS011;24210;51.460;6.148;2022-08-11T17:34:00;4.77;;;2.20;;
38425;SDS011;24210;51.460;6.148;2022-08-11T17:36:44;2.20;;;2.03;;
38425;SDS011;24210;51.460;6.148;2022-08-11T17:39:10;2.20;;;2.07;;
38425;SDS011;24210;51.460;6.148;2022-08-11T17:44:19;2.35;;;2.00;;
38425;SDS011;24210;51.460;6.148;2022-08-11T17:47:03;6.22;;;2.38;;
38425;SDS011;24210;51.460;6.148;2022-08-11T17:49:48;2.53;;;1.95;;
38425;SDS011;24210;51.460;6.148;2022-08-11T17:52:15;9.68;;;2.17;;
38425;SDS011;24210;51.460;6.148;2022-08-11T17:54:59;3.75;;;1.85;;
38425;SDS011;24210;51.460;6.148;2022-08-11T17:57:42;6.10;;;1.83;;
38425;SDS011;24210;51.460;6.148;2022-08-11T18:00:26;4.55;;;2.03;;
38425;SDS011;24210;51.460;6.148;2022-08-11T18:02:52;4.17;;;2.17;;
38425;SDS011;24210;51.460;6.148;2022-08-11T18:05:37;2.17;;;1.95;;
38425;SDS011;24210;51.460;6.148;2022-08-11T18:08:07;5.20;;;2.10;;
38425;SDS011;24210;51.460;6.148;2022-08-11T18:10:51;3.60;;;1.73;;
38425;SDS011;24210;51.460;6.148;2022-08-11T18:13:37;2.85;;;1.98;;
38425;SDS011;24210;51.460;6.148;2022-08-11T18:16:23;6.25;;;2.70;;
38425;SDS011;24210;51.460;6.148;2022-08-11T18:19:07;4.45;;;1.73;;
38425;SDS011;24210;51.460;6.148;2022-08-11T18:21:52;5.63;;;1.70;;
38425;SDS011;24210;51.460;6.148;2022-08-11T18:24:38;2.22;;;1.88;;
38425;SDS011;24210;51.460;6.148;2022-08-11T18:27:24;2.85;;;1.80;;
38425;SDS011;24210;51.460;6.148;2022-08-11T18:30:09;3.13;;;1.90;;
38425;SDS011;24210;51.460;6.148;2022-08-11T18:32:53;1.95;;;1.65;;
38425;SDS011;24210;51.460;6.148;2022-08-11T18:35:38;4.50;;;2.08;;
38425;SDS011;24210;51.460;6.148;2022-08-11T18:38:24;1.95;;;1.75;;
38425;SDS011;24210;51.460;6.148;2022-08-11T18:41:09;2.65;;;2.33;;
38425;SDS011;24210;51.460;6.148;2022-08-11T18:43:54;3.90;;;1.92;;
38425;SDS011;24210;51.460;6.148;2022-08-11T18:46:39;2.63;;;2.40;;
38425;SDS011;24210;51.460;6.148;2022-08-11T18:49:25;9.23;;;2.10;;
38425;SDS011;24210;51.460;6.148;2022-08-11T18:52:10;7.72;;;2.15;;
38425;SDS011;24210;51.460;6.148;2022-08-11T18:54:56;4.78;;;2.55;;
38425;SDS011;24210;51.460;6.148;2022-08-11T18:57:41;4.03;;;2.45;;
38425;SDS011;24210;51.460;6.148;2022-08-11T19:00:25;3.28;;;3.00;;
38425;SDS011;24210;51.460;6.148;2022-08-11T19:03:11;3.87;;;1.93;;
38425;SDS011;24210;51.460;6.148;2022-08-11T19:05:55;9.00;;;2.45;;
38425;SDS011;24210;51.460;6.148;2022-08-11T19:08:40;4.43;;;2.20;;
38425;SDS011;24210;51.460;6.148;2022-08-11T19:11:25;7.37;;;2.73;;
38425;SDS011;24210;51.460;6.148;2022-08-11T19:14:13;2.57;;;2.10;;
38425;SDS011;24210;51.460;6.148;2022-08-11T19:17:00;11.55;;;4.53;;
38425;SDS011;24210;51.460;6.148;2022-08-11T19:19:44;5.03;;;2.30;;
38425;SDS011;24210;51.460;6.148;2022-08-11T19:22:29;2.33;;;2.03;;
38425;SDS011;24210;51.460;6.148;2022-08-11T19:25:13;2.50;;;2.10;;
38425;SDS011;24210;51.460;6.148;2022-08-11T19:27:57;8.40;;;3.25;;
38425;SDS011;24210;51.460;6.148;2022-08-11T19:30:42;5.50;;;2.60;;
38425;SDS011;24210;51.460;6.148;2022-08-11T19:33:26;4.78;;;2.45;;